Latest Coastal Weather Observations for Middle Percy Island

IDQ60701

Issued at 10:42 pm EST Monday 2 March 2015 (issued every 10 minutes, with the page automatically refreshed every 10 minutes)

About coastal observations | Map of coastal stations | Coastal observations for QLD | Marine services | Other Formats
Station Details ID: 200001 Name: MIDDLE PERCY ISLAND Lat: -21.66 Lon: 150.27 Height: 208.7 m
Data from the previous 72 hours. | See also: Recent months at Middle Percy Island
Date/Time
EST
Temp

°C
Wind Pressure Rain
since 9am
mm
Weather Cloud Vis
km
Sea
Height
m
Swell
Dir
 
Speed
knots
Gust
knots
hPa Trend Height
m
Period
s
Dir
02/10:30pm 25.4 ESE 15 20 1011.6 - 0.0 - - - - - - -
02/10:00pm 25.4 ESE 14 20 1011.6 - 0.0 - - - - - - -
02/09:30pm 25.5 ESE 12 18 1011.7 - 0.0 - - - - - - -
02/09:00pm 25.4 ESE 14 20 1011.2 - 0.0 - - - - - - -
02/08:30pm 25.4 ESE 14 19 1010.9 - 0.0 - - - - - - -
02/08:00pm 25.5 ESE 15 20 1010.7 - 0.0 - - - - - - -
02/07:30pm 25.6 ESE 18 22 1010.4 - 0.0 - - - - - - -
02/07:00pm 25.5 ESE 14 20 1009.8 - 0.0 - - - - - - -
02/06:30pm 25.6 ESE 14 21 1009.7 - 0.0 - - - - - - -
02/06:00pm 26.1 ESE 13 18 1009.4 - 0.0 - - - - - - -
02/05:30pm 26.5 ESE 13 18 1009.2 - 0.0 - - - - - - -
02/05:00pm 26.8 ESE 14 18 1008.9 - 0.0 - - - - - - -
02/04:30pm 27.2 ESE 12 18 1008.5 - 0.0 - - - - - - -
02/04:00pm 27.6 ESE 12 19 1008.4 - 0.0 - - - - - - -
02/03:30pm 27.6 ESE 12 17 1008.7 - 0.0 - - - - - - -
02/03:00pm 27.9 ESE 11 16 1008.7 - 0.0 - - - - - - -
02/02:30pm 28.2 ESE 10 14 1008.9 - 0.0 - - - - - - -
02/02:00pm 28.3 ESE 9 13 1009.3 - 0.0 - - - - - - -
02/01:30pm 29.0 SE 9 13 1009.5 - 0.0 - - - - - - -
02/01:00pm 28.9 ESE 10 14 1009.8 - 0.0 - - - - - - -
02/12:30pm 27.9 SSE 10 13 1010.2 - 0.0 - - - - - - -
02/12:00pm 28.1 SSE 10 14 1010.5 - 0.0 - - - - - - -
02/11:30am 28.4 SSE 10 13 1010.5 - 0.0 - - - - - - -
02/11:00am 28.2 SE 8 11 1010.8 - 0.0 - - - - - - -
02/10:30am 27.4 SE 8 12 1010.9 - 0.0 - - - - - - -
02/10:00am 28.1 SE 7 10 1011.1 - 0.0 - - - - - - -
02/09:30am 26.7 SSE 7 10 1011.3 - 0.0 - - - - - - -
02/09:00am 27.5 SSE 5 8 1011.0 - 0.0 - - - - - - -
02/08:30am 26.7 SSE 6 8 1010.9 - 0.0 - - - - - - -
02/08:00am 26.2 SE 4 6 1010.5 - 0.0 - - - - - - -
02/07:30am 25.9 ESE 2 3 1010.4 - 0.0 - - - - - - -
02/07:00am 25.4 SSE 2 3 1010.2 - 0.0 - - - - - - -
02/06:30am 24.5 N 1 3 1009.5 - 0.0 - - - - - - -
02/06:00am 24.0 NNE 2 3 1009.1 - 0.0 - - - - - - -
02/05:30am 24.0 NNE 3 4 1008.8 - 0.0 - - - - - - -
02/05:00am 24.0 NNE 3 4 1008.6 - 0.0 - - - - - - -
02/04:30am 24.0 NNE 3 5 1008.3 - 0.0 - - - - - - -
02/04:00am 24.1 NNE 5 6 1008.1 - 0.0 - - - - - - -
02/03:30am 24.1 NNE 5 7 1008.1 - 0.0 - - - - - - -
02/03:00am 24.2 NNE 6 8 1008.0 - 0.0 - - - - - - -
02/02:30am 24.0 NNE 5 6 1008.3 - 0.0 - - - - - - -
02/02:00am 24.2 NNE 4 5 1008.9 - 0.0 - - - - - - -
02/01:30am 24.5 NE 4 5 1009.4 - 0.0 - - - - - - -
02/01:00am 24.7 NNE 5 7 1009.4 - 0.0 - - - - - - -
02/12:30am 24.4 NNE 5 7 1009.5 - 0.0 - - - - - - -
02/12:00am 24.6 NE 5 8 1009.8 - 0.0 - - - - - - -
 
Date/Time
EST
Temp

°C
Wind Pressure Rain
since 9am
mm
Weather Cloud Vis
km
Sea
Height
m
Swell
Dir
 
Speed
knots
Gust
knots
hPa Trend Height
m
Period
s
Dir
01/11:30pm 24.9 NNE 7 9 1010.1 - 0.0 - - - - - - -
01/11:00pm 24.9 NE 7 11 1010.2 - 0.0 - - - - - - -
01/10:30pm 25.2 NE 7 10 1010.2 - 0.0 - - - - - - -
01/10:00pm 25.1 NNE 10 13 1009.9 - 0.0 - - - - - - -
01/09:30pm 25.1 NNE 9 12 1009.7 - 0.0 - - - - - - -
01/09:00pm 25.1 NE 8 10 1009.8 - 0.0 - - - - - - -
01/08:30pm 25.1 NE 6 10 1009.6 - 0.0 - - - - - - -
01/08:00pm 25.1 NE 7 10 1009.2 - 0.0 - - - - - - -
01/07:30pm 25.0 ENE 6 10 1008.7 - 0.0 - - - - - - -
01/07:00pm 25.2 ENE 5 9 1008.6 - 0.0 - - - - - - -
01/06:30pm 25.3 NE 7 11 1008.1 - 0.0 - - - - - - -
01/06:00pm 25.8 NE 7 11 1007.9 - 0.0 - - - - - - -
01/05:30pm 26.3 NE 8 10 1007.8 - 0.0 - - - - - - -
01/05:00pm 26.9 NE 7 10 1007.9 - 0.0 - - - - - - -
01/04:30pm 27.7 NE 7 11 1007.7 - 0.0 - - - - - - -
01/04:00pm 28.3 ENE 4 7 1007.6 - 0.0 - - - - - - -
01/03:30pm 28.8 ESE 6 11 1007.6 - 0.0 - - - - - - -
01/03:00pm 28.6 E 3 5 1007.8 - 0.0 - - - - - - -
01/02:30pm 28.7 E 5 8 1007.9 - 0.0 - - - - - - -
01/02:00pm 27.9 ESE 5 10 1008.2 - 0.0 - - - - - - -
01/01:30pm 28.1 SE 7 11 1008.5 - 0.0 - - - - - - -
01/01:00pm 28.1 SE 8 12 1009.0 - 0.0 - - - - - - -
01/12:30pm 28.4 ESE 7 12 1009.4 - 0.0 - - - - - - -
01/12:00pm 28.2 ESE 6 9 1009.5 - 0.0 - - - - - - -
01/11:30am 26.4 ESE 5 8 1010.1 - 0.0 - - - - - - -
01/11:00am 26.5 ESE 4 10 1010.4 - 0.0 - - - - - - -
01/10:30am 26.8 NE 3 6 1010.6 - 0.0 - - - - - - -
01/10:00am 28.8 ESE 5 8 1010.6 - 0.0 - - - - - - -
01/09:30am 27.4 ESE 5 8 1010.4 - 0.0 - - - - - - -
01/09:00am 26.4 ESE 3 5 1010.3 - 0.0 - - - - - - -
01/08:30am 26.5 SE 4 6 1010.2 - 0.0 - - - - - - -
01/08:00am 26.1 ENE 1 3 1009.8 - 0.0 - - - - - - -
01/07:30am 26.7 ESE 3 5 1009.5 - 0.0 - - - - - - -
01/07:00am 25.4 NE 3 5 1009.3 - 0.0 - - - - - - -
01/06:30am 24.4 NE 4 6 1008.8 - 0.0 - - - - - - -
01/06:00am 24.0 NE 4 6 1008.4 - 0.0 - - - - - - -
01/05:30am 24.2 NE 5 7 1008.1 - 0.0 - - - - - - -
01/05:00am 24.0 NE 5 8 1007.7 - 0.0 - - - - - - -
01/04:30am 24.2 NE 5 7 1007.9 - 0.0 - - - - - - -
01/04:00am 24.2 NE 4 7 1008.0 - 0.0 - - - - - - -
01/03:30am 24.1 NE 4 5 1008.0 - 0.0 - - - - - - -
01/03:00am 24.4 NE 5 7 1008.1 - 0.0 - - - - - - -
01/02:30am 24.4 NE 5 6 1008.3 - 0.0 - - - - - - -
01/02:00am 24.4 ENE 5 7 1008.4 - 0.0 - - - - - - -
01/01:30am 24.5 NE 4 6 1008.8 - 0.0 - - - - - - -
01/01:00am 24.6 NE 6 9 1009.0 - 0.0 - - - - - - -
01/12:30am 24.7 NE 7 11 1009.3 - 0.0 - - - - - - -
01/12:00am 24.8 NE 7 11 1009.6 - 0.0 - - - - - - -
 
Date/Time
EST
Temp

°C
Wind Pressure Rain
since 9am
mm
Weather Cloud Vis
km
Sea
Height
m
Swell
Dir
 
Speed
knots
Gust
knots
hPa Trend Height
m
Period
s
Dir
28/11:30pm 24.9 NE 8 11 1009.7 - 0.0 - - - - - - -
28/11:00pm 24.8 NE 7 12 1009.9 - 0.0 - - - - - - -
28/10:30pm 24.9 ENE 9 13 1009.9 - 0.0 - - - - - - -
28/10:00pm 25.0 ENE 8 13 1009.8 - 0.0 - - - - - - -
28/09:30pm 25.1 ENE 9 14 1009.7 - 0.0 - - - - - - -
28/09:00pm 25.2 ENE 10 14 1009.7 - 0.0 - - - - - - -
28/08:30pm 25.3 ENE 9 14 1009.4 - 0.0 - - - - - - -
28/08:00pm 25.3 NE 8 14 1009.2 - 0.0 - - - - - - -
28/07:30pm 25.3 ENE 8 14 1008.8 - 0.0 - - - - - - -
28/07:00pm 25.3 ENE 8 13 1008.5 - 0.0 - - - - - - -
28/06:30pm 25.4 NE 9 14 1008.2 - 0.0 - - - - - - -
28/06:00pm 25.7 ENE 9 14 1008.1 - 0.0 - - - - - - -
28/05:30pm 26.5 ENE 8 13 1007.9 - 0.0 - - - - - - -
28/05:00pm 26.7 ENE 10 13 1007.6 - 0.0 - - - - - - -
28/04:30pm 27.2 NE 9 14 1007.4 - 0.0 - - - - - - -
28/04:00pm 27.5 NE 9 14 1007.3 - 0.0 - - - - - - -
28/03:30pm 28.0 ENE 5 11 1007.2 - 0.0 - - - - - - -
28/03:00pm 27.7 ESE 9 13 1007.3 - 0.0 - - - - - - -
28/02:30pm 27.4 ESE 9 13 1007.5 - 0.0 - - - - - - -
28/02:00pm 27.9 ESE 8 13 1007.8 - 0.0 - - - - - - -
28/01:30pm 28.1 SSE 7 11 1008.1 - 0.0 - - - - - - -
28/01:00pm 28.6 SSE 8 11 1008.6 - 0.0 - - - - - - -
28/12:30pm 28.3 SSE 8 12 1008.8 - 0.0 - - - - - - -
28/12:00pm 27.7 SSE 9 14 1009.3 - 0.0 - - - - - - -
28/11:30am 27.8 SSE 9 14 1009.3 - 0.0 - - - - - - -
28/11:00am 27.4 SSE 9 12 1009.6 - 0.0 - - - - - - -
28/10:30am 27.3 S 9 11 1009.9 - 0.0 - - - - - - -
28/10:00am 26.7 S 8 11 1010.0 - 0.0 - - - - - - -
28/09:30am 25.7 SSW 5 7 1010.0 - 0.0 - - - - - - -
28/09:00am 25.6 SSW 3 5 1009.8 - 0.0 - - - - - - -
28/08:30am 25.6 WSW 2 3 1009.5 - 0.0 - - - - - - -
28/08:00am 25.5 CALM 0 0 1009.2 - 0.0 - - - - - - -
28/07:30am 25.1 CALM 0 0 1008.8 - 0.0 - - - - - - -
28/07:00am 24.5 CALM 0 0 1008.3 - 0.0 - - - - - - -
28/06:30am 24.3 CALM 0 0 1008.2 - 0.0 - - - - - - -
28/06:00am 24.3 CALM 0 0 1008.1 - 0.0 - - - - - - -
28/05:30am 24.0 N 3 4 1007.9 - 0.0 - - - - - - -
28/05:00am 23.8 N 4 5 1007.8 - 0.0 - - - - - - -
28/04:30am 24.2 NNE 2 2 1008.0 - 0.0 - - - - - - -
28/04:00am 24.1 NNE 4 6 1007.5 - 0.0 - - - - - - -
28/03:30am 24.0 N 6 8 1007.3 - 0.0 - - - - - - -
28/03:00am 24.2 N 5 7 1007.7 - 0.0 - - - - - - -
28/02:30am 24.2 NNE 6 8 1007.7 - 0.0 - - - - - - -
28/02:00am 24.3 NNE 5 8 1007.9 - 0.0 - - - - - - -
28/01:30am 24.3 NNE 6 9 1008.1 - 0.0 - - - - - - -
28/01:00am 24.4 NNE 6 10 1008.3 - 0.0 - - - - - - -
28/12:30am 24.6 NNE 7 10 1008.5 - 0.0 - - - - - - -
28/12:00am 24.6 NNE 6 9 1009.1 - 0.0 - - - - - - -
 
Date/Time
EST
Temp

°C
Wind Pressure Rain
since 9am
mm
Weather Cloud Vis
km
Sea
Height
m
Swell
Dir
 
Speed
knots
Gust
knots
hPa Trend Height
m
Period
s
Dir
27/11:30pm 24.7 NNE 7 11 1009.1 - 0.0 - - - - - - -
27/11:00pm 24.5 NNE 7 11 1009.0 - 0.0 - - - - - - -

Other Formats:

Comma delimited format used in spreadsheet applications
http://www.bom.gov.au/fwo/IDQ60701/IDQ60701.94372.axf

JavaScript Object Notation format (JSON) in row-major order
http://www.bom.gov.au/fwo/IDQ60701/IDQ60701.94372.json